createdAt,value
2018-12-05T00:21:17.530Z,1.56
2018-12-05T00:28:08.489Z,1.81
2018-12-05T00:33:24.868Z,1.64
2018-12-05T00:38:40.839Z,1.58
2018-12-05T00:43:51.621Z,1.59
2018-12-05T00:49:05.425Z,1.63
2018-12-05T00:54:12.264Z,1.77
2018-12-05T00:59:23.582Z,1.81
2018-12-05T01:04:33.184Z,2.00
2018-12-05T01:09:46.709Z,1.83
2018-12-05T01:14:57.102Z,1.77
2018-12-05T01:20:10.049Z,1.81
2018-12-05T01:25:23.509Z,1.93
2018-12-05T01:30:30.865Z,2.03
2018-12-05T01:35:44.434Z,2.03
2018-12-05T01:41:00.011Z,2.14
2018-12-05T01:46:15.406Z,1.99
2018-12-05T01:51:42.609Z,1.88
2018-12-05T01:56:49.489Z,1.77
2018-12-05T02:01:56.073Z,1.80
2018-12-05T02:07:03.416Z,1.79
2018-12-05T02:12:13.005Z,1.87
2018-12-05T02:17:18.750Z,1.85
2018-12-05T02:22:41.276Z,1.74
2018-12-05T02:27:49.349Z,1.66
2018-12-05T02:33:05.818Z,1.76
2018-12-05T02:38:12.559Z,1.66
2018-12-05T02:43:26.250Z,1.68
2018-12-05T02:48:41.940Z,1.65
2018-12-05T02:53:55.741Z,1.68
2018-12-05T02:59:06.201Z,1.72
2018-12-05T03:04:19.475Z,1.74
2018-12-05T03:09:32.802Z,1.71
2018-12-05T03:14:43.210Z,1.78
2018-12-05T03:19:56.369Z,2.00
2018-12-05T03:25:03.409Z,2.10
2018-12-05T03:30:11.666Z,2.21
2018-12-05T03:35:20.402Z,2.22
2018-12-05T03:40:36.245Z,2.17
2018-12-05T03:45:41.600Z,2.21
2018-12-05T03:50:54.751Z,2.13
2018-12-05T04:01:32.385Z,1.97
2018-12-05T04:12:11.510Z,1.76
2018-12-05T04:17:23.281Z,1.63
2018-12-05T04:27:52.685Z,1.43
2018-12-05T04:33:05.731Z,1.58
2018-12-05T04:38:14.984Z,1.63
2018-12-05T04:43:22.049Z,1.64
2018-12-05T04:54:02.802Z,1.64
2018-12-05T04:59:18.116Z,1.77
2018-12-05T05:04:33.770Z,1.80
2018-12-05T05:09:44.008Z,1.90
2018-12-05T05:14:59.409Z,1.70
2018-12-05T05:20:12.509Z,1.55
2018-12-05T05:25:26.476Z,1.27
2018-12-05T05:30:39.862Z,1.47
2018-12-05T05:35:55.518Z,1.49
2018-12-05T05:41:05.227Z,1.39
2018-12-05T05:51:45.526Z,1.30
2018-12-05T05:56:56.411Z,1.52
2018-12-05T06:02:03.441Z,1.65
2018-12-05T06:07:13.285Z,1.66
2018-12-05T06:12:29.060Z,1.73
2018-12-05T06:17:38.706Z,1.84
2018-12-05T06:22:51.859Z,1.96
2018-12-05T06:28:17.186Z,1.75
2018-12-05T06:33:33.626Z,1.45
2018-12-05T06:38:42.797Z,1.46
2018-12-05T06:43:48.254Z,1.58
2018-12-05T06:49:00.721Z,1.64
2018-12-05T06:54:16.373Z,1.69
2018-12-05T06:59:32.281Z,1.78
2018-12-05T07:10:09.727Z,1.78
2018-12-05T07:15:18.976Z,1.80
2018-12-05T07:20:33.958Z,1.98
2018-12-05T07:25:46.877Z,1.97
2018-12-05T07:30:55.131Z,2.10
2018-12-05T07:36:02.583Z,1.88
2018-12-05T07:41:12.337Z,2.10
2018-12-05T07:51:58.793Z,2.15
2018-12-05T07:57:07.691Z,1.94
2018-12-05T08:02:14.573Z,1.82
2018-12-05T08:12:52.486Z,1.64
2018-12-05T08:18:01.953Z,1.62
2018-12-05T08:23:08.657Z,1.65
2018-12-05T08:28:23.922Z,1.74
2018-12-05T08:33:37.352Z,1.74
2018-12-05T08:54:56.647Z,2.15
2018-12-05T09:00:03.179Z,1.90
2018-12-05T09:10:54.231Z,1.84
2018-12-05T09:21:40.833Z,2.07
2018-12-05T09:27:02.721Z,2.06
2018-12-05T09:32:18.433Z,2.11
2018-12-05T09:42:52.990Z,1.96
2018-12-05T09:53:27.250Z,2.24
2018-12-05T10:04:12.407Z,2.86
2018-12-05T10:09:21.745Z,3.02
2018-12-05T10:19:58.898Z,2.69
2018-12-05T10:25:06.209Z,2.65
2018-12-05T10:30:13.565Z,2.59
2018-12-05T10:35:22.793Z,2.46
2018-12-05T10:51:30.409Z,2.62
2018-12-05T11:13:21.055Z,2.93
2018-12-05T11:29:44.977Z,2.98
2018-12-05T11:34:58.029Z,3.31
2018-12-05T11:40:11.770Z,3.66
2018-12-05T11:51:08.457Z,3.49
2018-12-05T11:56:12.045Z,3.51
2018-12-05T12:01:25.352Z,3.37
2018-12-05T12:06:31.965Z,3.42
2018-12-05T12:11:38.931Z,3.18
2018-12-05T12:33:12.929Z,3.41
2018-12-05T12:38:17.958Z,3.47
2018-12-05T12:43:25.028Z,3.82
2018-12-05T12:48:34.410Z,4.04
2018-12-05T12:59:12.644Z,4.74
2018-12-05T13:09:50.257Z,4.48
2018-12-05T13:31:29.722Z,4.46
2018-12-05T13:36:36.720Z,4.52
2018-12-05T13:41:41.763Z,4.74
2018-12-05T13:46:57.087Z,4.76
2018-12-05T13:52:08.211Z,4.36
2018-12-05T13:57:24.477Z,4.61
2018-12-05T14:02:34.541Z,4.22
2018-12-05T14:07:48.295Z,4.10
2018-12-05T14:13:01.361Z,4.09
2018-12-05T14:18:08.324Z,3.99
2018-12-05T14:23:34.360Z,3.99
2018-12-05T14:28:41.920Z,4.03
2018-12-05T14:33:49.122Z,3.93
2018-12-05T14:39:00.032Z,3.97
2018-12-05T14:44:13.861Z,4.02
2018-12-05T14:49:27.492Z,3.98
2018-12-05T14:54:35.477Z,4.16
2018-12-05T14:59:42.212Z,4.16
2018-12-05T15:04:50.086Z,4.21
2018-12-05T15:10:06.093Z,4.22
2018-12-05T15:20:55.213Z,4.02
2018-12-05T15:26:04.535Z,4.01
2018-12-05T15:31:13.829Z,3.99
2018-12-05T15:36:21.472Z,4.09
2018-12-05T15:41:29.401Z,4.06
2018-12-05T15:52:06.379Z,4.30
2018-12-05T15:57:24.229Z,4.25
2018-12-05T16:02:46.166Z,4.35
2018-12-05T16:07:55.826Z,4.22
2018-12-05T16:13:07.149Z,4.32
2018-12-05T16:18:18.734Z,4.32
2018-12-05T16:23:34.045Z,4.33
2018-12-05T16:28:50.157Z,4.35
2018-12-05T16:39:34.619Z,4.34
2018-12-05T16:44:41.741Z,4.30
2018-12-05T16:49:59.074Z,4.22
2018-12-05T16:55:05.851Z,4.32
2018-12-05T17:20:47.426Z,4.18
2018-12-05T17:25:58.145Z,4.00
2018-12-05T17:31:11.626Z,3.93
2018-12-05T17:36:21.183Z,3.96
2018-12-05T17:41:30.860Z,4.04
2018-12-05T17:46:44.222Z,4.06
2018-12-05T17:51:55.065Z,4.15
2018-12-05T18:08:12.798Z,4.20
2018-12-05T18:13:26.169Z,4.27
2018-12-05T18:18:33.122Z,4.30
2018-12-05T18:34:23.435Z,4.06
2018-12-05T18:45:05.070Z,3.97
2018-12-05T18:50:31.018Z,3.89
2018-12-05T18:55:41.309Z,3.85
2018-12-05T19:06:27.983Z,3.82
2018-12-05T19:11:38.004Z,3.82
2018-12-05T19:16:47.412Z,3.82
2018-12-05T19:22:09.161Z,3.94
2018-12-05T19:32:58.946Z,4.01
2018-12-05T19:38:10.874Z,4.14
2018-12-05T19:43:20.221Z,4.04
2018-12-05T19:48:36.358Z,4.18
2018-12-05T20:04:50.959Z,4.23
2018-12-05T20:10:03.247Z,4.26
2018-12-05T20:15:15.022Z,4.19
2018-12-05T20:20:23.685Z,4.23
2018-12-05T20:25:31.022Z,4.03
2018-12-05T20:36:24.165Z,4.19
2018-12-05T20:41:40.681Z,4.26
2018-12-05T20:46:49.665Z,4.11
2018-12-05T20:57:33.618Z,4.24
2018-12-05T21:02:48.965Z,4.22
2018-12-05T21:08:03.197Z,4.21
2018-12-05T21:13:18.466Z,4.21
2018-12-05T21:29:35.104Z,4.09
2018-12-05T21:34:44.658Z,3.80
2018-12-05T21:40:04.787Z,3.90
2018-12-05T21:56:17.389Z,3.93
2018-12-05T22:01:39.678Z,4.11
2018-12-05T22:06:58.134Z,4.22
2018-12-05T22:28:35.404Z,4.48
2018-12-05T22:39:17.274Z,4.24
2018-12-05T22:44:30.390Z,4.18
2018-12-05T22:49:40.331Z,4.39
2018-12-05T22:54:47.160Z,4.54
2018-12-05T23:00:01.210Z,4.53
2018-12-05T23:05:16.843Z,4.36
2018-12-05T23:10:24.901Z,4.26
2018-12-05T23:15:47.931Z,4.48
2018-12-05T23:26:18.733Z,4.50
2018-12-05T23:31:30.886Z,4.66
2018-12-05T23:42:08.613Z,4.72
2018-12-05T23:52:19.473Z,4.73
2018-12-05T23:57:31.441Z,4.77
